createdAt,value
2022-08-07T00:00:30.674Z,76.49
2022-08-07T00:03:09.787Z,76.55
2022-08-07T00:05:37.763Z,76.22
2022-08-07T00:08:07.830Z,75.29
2022-08-07T00:10:35.988Z,74.95
2022-08-07T00:13:25.562Z,74.96
2022-08-07T00:15:55.379Z,75.03
2022-08-07T00:18:25.213Z,74.93
2022-08-07T00:21:02.013Z,74.95
2022-08-07T00:23:32.860Z,74.95
2022-08-07T00:26:12.971Z,75.00
2022-08-07T00:28:55.704Z,75.24
2022-08-07T00:31:37.390Z,75.45
2022-08-07T00:34:08.976Z,75.32
2022-08-07T00:36:38.582Z,75.77
2022-08-07T00:39:16.356Z,75.81
2022-08-07T00:41:53.833Z,74.45
2022-08-07T00:44:29.830Z,74.78
2022-08-07T00:46:56.753Z,74.92
2022-08-07T00:49:24.794Z,74.38
2022-08-07T00:52:10.736Z,74.70
2022-08-07T00:54:41.345Z,74.84
2022-08-07T00:57:10.164Z,75.03
2022-08-07T00:59:39.683Z,74.60
2022-08-07T01:02:14.188Z,74.79
2022-08-07T01:04:58.287Z,75.01
2022-08-07T01:07:28.019Z,75.24
2022-08-07T01:10:04.905Z,75.33
2022-08-07T01:12:35.399Z,75.17
2022-08-07T01:15:04.493Z,74.74
2022-08-07T01:17:33.020Z,75.30
2022-08-07T01:20:09.338Z,75.24
2022-08-07T01:22:41.489Z,75.62
2022-08-07T01:25:40.338Z,75.81
2022-08-07T01:28:03.655Z,75.98
2022-08-07T01:30:31.994Z,75.62
2022-08-07T01:32:59.456Z,75.90
2022-08-07T01:35:53.114Z,76.02
2022-08-07T01:38:25.557Z,75.93
2022-08-07T01:41:02.190Z,76.00
2022-08-07T01:43:34.729Z,76.13
2022-08-07T01:46:08.361Z,76.17
2022-08-07T01:48:46.762Z,76.63
2022-08-07T01:52:01.071Z,76.50
2022-08-07T01:54:32.587Z,76.25
2022-08-07T01:57:24.518Z,76.51
2022-08-07T02:00:00.987Z,76.56
2022-08-07T02:03:19.016Z,76.80
2022-08-07T02:05:47.547Z,77.26
2022-08-07T02:08:20.725Z,77.45
2022-08-07T02:10:58.053Z,77.14
2022-08-07T02:13:57.458Z,76.98
2022-08-07T02:16:28.809Z,77.07
2022-08-07T02:19:05.674Z,76.88
2022-08-07T02:21:55.439Z,76.69
2022-08-07T02:24:25.950Z,76.87
2022-08-07T02:27:00.109Z,76.75
2022-08-07T02:29:30.655Z,77.83
2022-08-07T02:32:01.047Z,78.47
2022-08-07T02:34:29.600Z,78.75
2022-08-07T02:37:01.786Z,78.95
2022-08-07T02:39:43.345Z,79.13
2022-08-07T02:42:30.212Z,79.46
2022-08-07T02:45:00.789Z,79.67
2022-08-07T02:47:45.450Z,80.31
2022-08-07T02:50:18.461Z,80.91
2022-08-07T02:53:06.278Z,81.52
2022-08-07T02:56:02.439Z,81.67
2022-08-07T02:58:28.548Z,81.63
2022-08-07T03:01:03.121Z,82.14
2022-08-07T03:03:48.942Z,81.72
2022-08-07T03:06:26.085Z,80.33
2022-08-07T03:09:03.342Z,79.51
2022-08-07T03:11:39.010Z,80.15
2022-08-07T03:14:19.846Z,81.06
2022-08-07T03:16:50.350Z,81.60
2022-08-07T03:19:20.708Z,82.01
2022-08-07T03:21:50.749Z,81.76
2022-08-07T03:24:27.242Z,81.98
2022-08-07T03:27:00.934Z,82.15
2022-08-07T03:29:49.427Z,82.62
2022-08-07T03:32:28.407Z,82.69
2022-08-07T03:35:16.997Z,83.02
2022-08-07T03:37:53.843Z,83.35
2022-08-07T03:40:27.574Z,83.31
2022-08-07T03:43:01.529Z,83.77
2022-08-07T03:45:32.810Z,84.07
2022-08-07T03:48:11.641Z,84.29
2022-08-07T03:50:39.888Z,84.76
2022-08-07T03:53:11.299Z,84.60
2022-08-07T03:55:52.905Z,84.67
2022-08-07T03:59:04.763Z,85.16
2022-08-07T04:01:17.286Z,84.83
2022-08-07T04:03:53.169Z,84.11
2022-08-07T04:06:38.420Z,83.99
2022-08-07T04:09:15.363Z,83.56
2022-08-07T04:12:23.691Z,81.56
2022-08-07T04:14:38.576Z,79.06
2022-08-07T04:17:19.868Z,77.54
2022-08-07T04:19:51.565Z,75.91
2022-08-07T04:22:23.687Z,73.80
2022-08-07T04:24:58.196Z,73.27
2022-08-07T04:27:26.469Z,72.07
2022-08-07T04:30:01.785Z,70.75
2022-08-07T04:32:39.185Z,70.56
2022-08-07T04:35:12.926Z,69.47
2022-08-07T04:38:03.921Z,68.71
2022-08-07T04:40:31.405Z,67.41
2022-08-07T04:43:02.149Z,66.83
2022-08-07T04:45:57.784Z,66.16
2022-08-07T04:48:44.529Z,66.64
2022-08-07T04:51:34.697Z,65.06
2022-08-07T04:54:15.435Z,65.44
2022-08-07T04:58:10.247Z,64.36
2022-08-07T05:00:30.641Z,64.81
2022-08-07T05:03:31.100Z,64.61
2022-08-07T05:06:28.330Z,61.78
2022-08-07T05:09:43.382Z,60.36
2022-08-07T05:12:26.881Z,59.36
2022-08-07T05:15:21.882Z,58.49
2022-08-07T05:18:06.113Z,58.35
2022-08-07T05:20:40.965Z,58.31
2022-08-07T05:23:16.528Z,58.75
2022-08-07T05:26:13.377Z,59.18
2022-08-07T05:28:40.543Z,60.07
2022-08-07T05:31:12.563Z,60.11
2022-08-07T05:34:01.214Z,59.77
2022-08-07T05:36:35.687Z,59.48
2022-08-07T05:40:07.039Z,59.54
2022-08-07T05:42:01.619Z,58.61
2022-08-07T05:44:35.367Z,58.62
2022-08-07T05:47:17.862Z,59.80
2022-08-07T05:49:52.476Z,58.93
2022-08-07T05:52:32.475Z,59.05
2022-08-07T05:55:07.228Z,59.88
2022-08-07T05:57:42.165Z,59.66
2022-08-07T06:00:15.966Z,59.10
2022-08-07T06:02:53.736Z,58.72
2022-08-07T06:05:28.453Z,58.32
2022-08-07T06:08:13.468Z,58.30
2022-08-07T06:10:51.435Z,58.13
2022-08-07T06:13:19.817Z,58.45
2022-08-07T06:16:08.483Z,59.26
2022-08-07T06:18:40.128Z,58.97
2022-08-07T06:22:16.132Z,58.21
2022-08-07T06:24:46.200Z,58.06
2022-08-07T06:26:46.337Z,57.76
2022-08-07T06:29:14.456Z,57.24
2022-08-07T06:31:49.833Z,56.90
2022-08-07T06:34:19.708Z,57.49
2022-08-07T06:36:52.239Z,56.81
2022-08-07T06:40:16.345Z,57.47
2022-08-07T06:42:37.096Z,58.03
2022-08-07T06:45:24.891Z,56.49
2022-08-07T06:47:58.903Z,55.80
2022-08-07T06:50:36.362Z,55.16
2022-08-07T06:53:49.135Z,54.62
2022-08-07T06:56:00.849Z,55.22
2022-08-07T06:58:29.590Z,55.96
2022-08-07T07:01:08.876Z,55.05
2022-08-07T07:03:49.125Z,55.32
2022-08-07T07:06:23.963Z,54.75
2022-08-07T07:08:53.322Z,53.95
2022-08-07T07:12:07.969Z,54.11
2022-08-07T07:14:10.311Z,54.24
2022-08-07T07:16:49.509Z,53.37
2022-08-07T07:19:57.499Z,54.27
2022-08-07T07:22:36.559Z,53.89
2022-08-07T07:26:33.380Z,54.49
2022-08-07T07:28:42.669Z,54.73
2022-08-07T07:31:08.423Z,54.32
2022-08-07T07:33:38.298Z,53.44
2022-08-07T07:36:13.256Z,52.25
2022-08-07T07:38:46.229Z,52.43
2022-08-07T07:41:17.526Z,52.27
2022-08-07T07:44:14.696Z,52.01
2022-08-07T07:46:55.702Z,52.57
2022-08-07T07:50:33.019Z,51.85
2022-08-07T07:52:17.132Z,52.71
2022-08-07T07:54:51.116Z,52.18
2022-08-07T07:57:43.651Z,51.07
2022-08-07T08:00:09.914Z,51.13
2022-08-07T08:03:00.955Z,49.26
2022-08-07T08:05:42.835Z,49.40
2022-08-07T08:08:35.528Z,48.87
2022-08-07T08:11:08.567Z,47.69
2022-08-07T08:13:54.680Z,46.83
2022-08-07T08:16:41.825Z,47.14
2022-08-07T08:20:16.367Z,48.06
2022-08-07T08:22:33.082Z,46.36
2022-08-07T08:25:41.823Z,47.57
2022-08-07T08:28:24.018Z,46.59
2022-08-07T08:31:15.621Z,45.82
2022-08-07T08:33:49.584Z,46.83
2022-08-07T08:36:29.846Z,46.00
2022-08-07T08:39:02.251Z,44.86
2022-08-07T08:41:59.370Z,43.38
2022-08-07T08:44:44.428Z,43.05
2022-08-07T08:47:52.942Z,44.44
2022-08-07T08:50:39.183Z,44.75
2022-08-07T08:53:07.221Z,44.48
2022-08-07T08:55:55.515Z,44.41
2022-08-07T08:58:57.263Z,45.33
2022-08-07T09:02:35.029Z,45.25
2022-08-07T09:05:32.144Z,45.44
2022-08-07T09:08:36.900Z,44.96
2022-08-07T09:11:43.033Z,43.15
2022-08-07T09:14:29.553Z,43.20
2022-08-07T09:17:15.174Z,41.75
2022-08-07T09:19:57.678Z,42.38
2022-08-07T09:24:32.968Z,42.79
2022-08-07T09:25:54.240Z,45.33
2022-08-07T09:30:02.368Z,45.19
2022-08-07T09:31:49.344Z,44.73
2022-08-07T09:34:21.535Z,42.93
2022-08-07T09:37:00.600Z,43.20
2022-08-07T09:39:53.610Z,43.33
2022-08-07T09:42:37.941Z,43.67
2022-08-07T09:47:23.741Z,44.44
2022-08-07T09:48:23.185Z,44.64
2022-08-07T09:52:10.520Z,44.12
2022-08-07T09:54:40.243Z,44.29
2022-08-07T09:57:23.767Z,44.23
2022-08-07T10:00:15.631Z,44.72
2022-08-07T10:02:55.629Z,44.73
2022-08-07T10:06:00.725Z,44.18
2022-08-07T10:08:34.448Z,42.93
2022-08-07T10:12:01.836Z,42.21
2022-08-07T10:14:39.707Z,43.37
2022-08-07T10:17:25.101Z,43.62
2022-08-07T10:20:31.771Z,43.69
2022-08-07T10:24:05.192Z,43.56
2022-08-07T10:26:41.311Z,43.53
2022-08-07T10:29:45.534Z,43.67
2022-08-07T10:32:53.286Z,42.96
2022-08-07T10:36:05.524Z,42.30
2022-08-07T10:38:48.779Z,42.78
2022-08-07T10:41:46.267Z,43.28
2022-08-07T10:44:28.377Z,43.54
2022-08-07T10:47:18.525Z,42.09
2022-08-07T10:50:11.304Z,42.38
2022-08-07T10:53:21.559Z,42.96
2022-08-07T10:56:03.257Z,41.95
2022-08-07T10:58:40.424Z,42.09
2022-08-07T11:01:22.370Z,42.30
2022-08-07T11:03:55.271Z,41.59
2022-08-07T11:07:14.912Z,40.56
2022-08-07T11:10:09.537Z,40.68
2022-08-07T11:13:02.292Z,40.08
2022-08-07T11:15:35.633Z,39.14
2022-08-07T11:18:35.442Z,40.86
2022-08-07T11:21:32.068Z,40.30
2022-08-07T11:24:04.209Z,40.27
2022-08-07T11:26:53.839Z,41.35
2022-08-07T11:29:41.703Z,40.92
2022-08-07T11:32:40.408Z,39.78
2022-08-07T11:35:11.219Z,39.37
2022-08-07T11:37:58.243Z,39.28
2022-08-07T11:40:40.023Z,39.81
2022-08-07T11:43:41.759Z,38.98
2022-08-07T11:46:38.809Z,38.81
2022-08-07T11:49:17.875Z,38.68
2022-08-07T11:52:37.752Z,38.24
2022-08-07T11:55:18.920Z,38.84
2022-08-07T11:58:33.366Z,38.26
2022-08-07T12:01:20.403Z,37.14
2022-08-07T12:04:27.664Z,37.48
2022-08-07T12:07:27.692Z,37.35
2022-08-07T12:10:07.683Z,39.49
2022-08-07T12:12:52.277Z,36.99
2022-08-07T12:15:46.185Z,37.55
2022-08-07T12:18:22.313Z,37.39
2022-08-07T12:21:21.027Z,37.55
2022-08-07T12:25:07.827Z,36.65
2022-08-07T12:28:09.577Z,37.00
2022-08-07T12:30:33.475Z,38.59
2022-08-07T12:33:09.278Z,37.35
2022-08-07T12:35:58.011Z,36.96
2022-08-07T12:38:39.325Z,37.19
2022-08-07T12:41:12.899Z,37.00
2022-08-07T12:44:03.617Z,36.52
2022-08-07T12:46:53.003Z,36.44
2022-08-07T12:49:44.300Z,36.46
2022-08-07T12:52:39.184Z,36.61
2022-08-07T12:56:02.341Z,35.76
2022-08-07T12:58:39.672Z,35.39
2022-08-07T13:01:27.903Z,36.12
2022-08-07T13:04:31.714Z,37.54
2022-08-07T13:08:13.560Z,37.23
2022-08-07T13:10:37.578Z,36.99
2022-08-07T13:13:48.937Z,38.11
2022-08-07T13:16:36.629Z,37.95
2022-08-07T13:19:34.996Z,36.94
2022-08-07T13:22:19.785Z,37.36
2022-08-07T13:25:03.404Z,36.39
2022-08-07T13:28:10.931Z,36.73
2022-08-07T13:30:40.285Z,36.69
2022-08-07T13:34:30.827Z,37.02
2022-08-07T13:36:17.490Z,36.67
2022-08-07T13:38:45.428Z,37.19
2022-08-07T13:41:49.738Z,38.29
2022-08-07T13:44:27.611Z,37.40
2022-08-07T13:47:09.082Z,37.93
2022-08-07T13:50:35.133Z,37.70
2022-08-07T13:52:40.865Z,37.89
2022-08-07T13:55:13.197Z,36.99
2022-08-07T13:58:01.929Z,37.74
2022-08-07T14:00:39.562Z,37.49
2022-08-07T14:03:29.160Z,37.75
2022-08-07T14:06:12.335Z,39.08
2022-08-07T14:08:44.307Z,37.36
2022-08-07T14:11:17.671Z,36.94
2022-08-07T14:13:55.873Z,37.06
2022-08-07T14:16:32.489Z,36.61
2022-08-07T14:19:03.153Z,37.28
2022-08-07T14:22:03.543Z,37.78
2022-08-07T14:24:33.642Z,37.28
2022-08-07T14:28:11.842Z,37.46
2022-08-07T14:30:07.463Z,37.51
2022-08-07T14:32:47.421Z,37.08
2022-08-07T14:35:44.882Z,37.99
2022-08-07T14:38:26.411Z,37.37
2022-08-07T14:41:02.210Z,37.38
2022-08-07T14:43:59.336Z,37.00
2022-08-07T14:49:56.098Z,36.20
2022-08-07T14:52:05.048Z,36.71
2022-08-07T14:54:43.409Z,37.11
2022-08-07T14:57:14.868Z,36.81
2022-08-07T15:02:39.073Z,37.08
2022-08-07T15:10:58.755Z,38.03
2022-08-07T15:16:20.144Z,31.04
2022-08-07T15:19:05.249Z,27.95
2022-08-07T15:21:58.740Z,25.94
2022-08-07T15:25:15.651Z,25.03
2022-08-07T15:27:26.104Z,24.82
2022-08-07T15:30:10.333Z,23.98
2022-08-07T15:33:01.195Z,23.85
2022-08-07T15:36:01.807Z,24.23
2022-08-07T15:38:33.072Z,25.14
2022-08-07T15:41:23.805Z,26.89
2022-08-07T15:44:09.089Z,28.64
2022-08-07T15:46:47.345Z,29.65
2022-08-07T15:49:25.274Z,29.21
2022-08-07T15:54:34.711Z,31.00
2022-08-07T15:57:39.392Z,32.73
2022-08-07T15:59:59.297Z,34.02
2022-08-07T16:02:29.970Z,33.88
2022-08-07T16:05:01.001Z,34.71
2022-08-07T16:08:30.207Z,35.30
2022-08-07T16:10:22.844Z,35.60
2022-08-07T16:13:59.438Z,35.94
2022-08-07T16:16:47.965Z,35.45
2022-08-07T16:19:42.519Z,34.34
2022-08-07T16:22:37.755Z,33.91
2022-08-07T16:25:55.249Z,33.72
2022-08-07T16:30:05.490Z,34.66
2022-08-07T16:31:51.289Z,35.02
2022-08-07T16:34:24.648Z,35.21
2022-08-07T16:37:02.341Z,35.53
2022-08-07T16:39:49.124Z,35.77
2022-08-07T16:42:25.537Z,35.50
2022-08-07T16:45:14.852Z,35.86
2022-08-07T16:48:53.843Z,35.73
2022-08-07T16:52:06.534Z,35.85
2022-08-07T16:54:58.562Z,36.32
2022-08-07T16:58:02.392Z,35.94
2022-08-07T17:00:31.996Z,36.08
2022-08-07T17:03:17.731Z,36.91
2022-08-07T17:06:19.217Z,36.90
2022-08-07T17:09:09.442Z,36.54
2022-08-07T17:12:04.325Z,36.58
2022-08-07T17:14:43.853Z,36.99
2022-08-07T17:17:47.530Z,37.35
2022-08-07T17:20:37.793Z,37.77
2022-08-07T17:23:23.134Z,38.56
2022-08-07T17:26:30.747Z,38.95
2022-08-07T17:29:18.342Z,39.87
2022-08-07T17:32:35.607Z,40.59
2022-08-07T17:35:51.816Z,40.79
2022-08-07T17:38:11.349Z,40.84
2022-08-07T17:40:57.069Z,41.07
2022-08-07T17:44:00.957Z,41.23
2022-08-07T17:46:34.245Z,41.52
2022-08-07T17:49:23.376Z,41.58
2022-08-07T17:52:12.947Z,41.66
2022-08-07T17:54:53.920Z,41.83
2022-08-07T17:57:58.364Z,42.03
2022-08-07T18:00:34.509Z,42.26
2022-08-07T18:03:25.430Z,42.10
2022-08-07T18:06:09.432Z,42.30
2022-08-07T18:09:01.780Z,42.61
2022-08-07T18:12:18.117Z,42.91
2022-08-07T18:14:38.276Z,42.91
2022-08-07T18:18:33.111Z,43.17
2022-08-07T18:21:08.229Z,43.59
2022-08-07T18:23:57.389Z,43.74
2022-08-07T18:26:40.868Z,43.79
2022-08-07T18:30:08.443Z,43.88
2022-08-07T18:33:16.175Z,43.80
2022-08-07T18:35:50.306Z,43.90
2022-08-07T18:38:54.868Z,44.21
2022-08-07T18:41:45.907Z,45.01
2022-08-07T18:45:09.162Z,46.27
2022-08-07T18:47:44.672Z,47.03
2022-08-07T18:50:40.705Z,47.62
2022-08-07T18:53:56.054Z,48.54
2022-08-07T18:57:06.143Z,48.61
2022-08-07T19:00:00.542Z,49.08
2022-08-07T19:03:02.449Z,49.71
2022-08-07T19:06:21.897Z,50.13
2022-08-07T19:09:54.591Z,50.61
2022-08-07T19:12:20.671Z,50.91
2022-08-07T19:16:03.305Z,51.39
2022-08-07T19:18:35.313Z,51.51
2022-08-07T19:21:47.980Z,51.98
2022-08-07T19:24:10.168Z,52.59
2022-08-07T19:27:01.890Z,52.81
2022-08-07T19:31:01.644Z,52.91
2022-08-07T19:32:42.277Z,53.36
2022-08-07T19:35:25.338Z,53.39
2022-08-07T19:37:58.503Z,53.85
2022-08-07T19:40:30.561Z,54.29
2022-08-07T19:43:07.287Z,54.89
2022-08-07T19:46:07.874Z,55.14
2022-08-07T19:49:04.480Z,55.11
2022-08-07T19:51:52.591Z,55.38
2022-08-07T19:54:32.522Z,55.99
2022-08-07T19:58:02.495Z,56.16
2022-08-07T20:00:10.061Z,56.48
2022-08-07T20:03:02.865Z,57.00
2022-08-07T20:06:00.034Z,57.25
2022-08-07T20:08:24.107Z,57.95
2022-08-07T20:11:03.746Z,58.17
2022-08-07T20:13:34.351Z,58.46
2022-08-07T20:16:04.603Z,58.62
2022-08-07T20:18:34.684Z,58.77
2022-08-07T20:21:14.830Z,58.89
2022-08-07T20:23:57.989Z,59.37
2022-08-07T20:26:38.626Z,59.53
2022-08-07T20:29:47.296Z,59.73
2022-08-07T20:32:05.855Z,60.24
2022-08-07T20:34:50.647Z,60.56
2022-08-07T20:37:29.352Z,60.96
2022-08-07T20:40:03.871Z,61.32
2022-08-07T20:42:33.731Z,61.55
2022-08-07T20:45:33.696Z,61.78
2022-08-07T20:47:57.944Z,61.95
2022-08-07T20:50:29.058Z,62.12
2022-08-07T20:52:58.063Z,62.35
2022-08-07T20:55:25.446Z,62.02
2022-08-07T20:58:00.045Z,62.34
2022-08-07T21:00:42.165Z,62.71
2022-08-07T21:03:14.136Z,62.81
2022-08-07T21:05:55.835Z,63.05
2022-08-07T21:08:36.615Z,63.19
2022-08-07T21:11:40.111Z,63.62
2022-08-07T21:14:31.963Z,63.68
2022-08-07T21:18:03.163Z,63.66
2022-08-07T21:20:04.849Z,63.52
2022-08-07T21:22:54.135Z,63.59
2022-08-07T21:25:24.604Z,63.76
2022-08-07T21:28:05.799Z,64.08
2022-08-07T21:30:48.020Z,64.54
2022-08-07T21:33:23.814Z,64.88
2022-08-07T21:36:50.539Z,65.00
2022-08-07T21:39:46.217Z,65.22
2022-08-07T21:42:42.637Z,65.37
2022-08-07T21:46:10.452Z,65.44
2022-08-07T21:48:57.508Z,65.17
2022-08-07T21:51:27.445Z,65.31
2022-08-07T21:54:26.128Z,65.56
2022-08-07T21:57:44.947Z,65.97
2022-08-07T22:00:25.115Z,66.24
2022-08-07T22:03:17.373Z,66.43
2022-08-07T22:06:06.182Z,66.67
2022-08-07T22:08:51.795Z,66.82
2022-08-07T22:11:21.594Z,67.09
2022-08-07T22:13:55.679Z,67.42
2022-08-07T22:16:46.224Z,67.66
2022-08-07T22:19:29.675Z,67.77
2022-08-07T22:22:20.717Z,67.75
2022-08-07T22:25:46.284Z,67.85
2022-08-07T22:28:31.603Z,68.08
2022-08-07T22:31:58.928Z,68.16
2022-08-07T22:34:13.237Z,68.23
2022-08-07T22:36:52.888Z,67.92
2022-08-07T22:39:35.502Z,67.26
2022-08-07T22:42:53.954Z,66.97
2022-08-07T22:46:21.412Z,67.02
2022-08-07T22:48:55.071Z,67.70
2022-08-07T22:51:36.448Z,67.92
2022-08-07T22:54:48.926Z,68.34
2022-08-07T22:57:53.388Z,69.05
2022-08-07T23:00:28.484Z,69.50
2022-08-07T23:03:18.048Z,69.52
2022-08-07T23:06:07.565Z,69.45
2022-08-07T23:10:01.138Z,69.55
2022-08-07T23:12:32.673Z,69.92
2022-08-07T23:15:10.944Z,70.37
2022-08-07T23:18:13.314Z,71.26
2022-08-07T23:20:59.749Z,71.31
2022-08-07T23:24:06.006Z,71.54
2022-08-07T23:26:56.882Z,71.25
2022-08-07T23:29:43.443Z,70.99
2022-08-07T23:34:23.385Z,70.95
2022-08-07T23:36:17.072Z,71.25
2022-08-07T23:39:22.042Z,71.46
2022-08-07T23:42:15.693Z,71.82
2022-08-07T23:44:52.514Z,71.85
2022-08-07T23:47:22.617Z,72.61
2022-08-07T23:50:28.730Z,72.83
2022-08-07T23:53:17.108Z,73.08
2022-08-07T23:56:21.868Z,73.26
